createdAt,value
2022-11-20T00:00:01.292Z,3.53
2022-11-20T00:02:36.679Z,4.18
2022-11-20T00:05:06.900Z,2.67
2022-11-20T00:07:36.911Z,2.58
2022-11-20T00:10:06.915Z,2.70
2022-11-20T00:12:36.810Z,2.80
2022-11-20T00:15:07.488Z,3.95
2022-11-20T00:17:37.192Z,3.17
2022-11-20T00:20:07.042Z,5.40
2022-11-20T00:22:37.048Z,3.53
2022-11-20T00:25:06.782Z,3.35
2022-11-20T00:27:36.686Z,2.92
2022-11-20T00:30:10.009Z,2.85
2022-11-20T00:32:41.776Z,2.58
2022-11-20T00:35:11.600Z,4.15
2022-11-20T00:37:41.039Z,2.65
2022-11-20T00:40:11.187Z,4.90
2022-11-20T00:42:41.039Z,3.78
2022-11-20T00:45:11.084Z,4.40
2022-11-20T00:47:40.950Z,4.00
2022-11-20T00:50:11.242Z,4.35
2022-11-20T00:52:40.684Z,4.15
2022-11-20T00:55:10.067Z,5.80
2022-11-20T00:57:49.537Z,4.35
2022-11-20T01:00:19.616Z,5.78
2022-11-20T01:02:49.249Z,5.13
2022-11-20T01:05:19.111Z,7.57
2022-11-20T01:07:48.950Z,3.45
2022-11-20T01:10:19.031Z,3.78
2022-11-20T01:13:08.679Z,2.53
2022-11-20T01:15:38.273Z,4.68
2022-11-20T01:18:07.918Z,4.47
2022-11-20T01:20:40.200Z,2.88
2022-11-20T01:23:10.110Z,4.88
2022-11-20T01:25:40.231Z,9.57
2022-11-20T01:28:09.809Z,7.55
2022-11-20T01:30:39.595Z,7.88
2022-11-20T01:33:09.723Z,6.10
2022-11-20T01:35:39.539Z,7.90
2022-11-20T01:38:09.456Z,7.03
2022-11-20T01:40:38.983Z,7.68
2022-11-20T01:43:22.895Z,7.20
2022-11-20T01:46:20.009Z,3.63
2022-11-20T01:48:58.334Z,8.40
2022-11-20T01:51:53.014Z,8.27
2022-11-20T01:54:32.706Z,5.97
2022-11-20T01:57:02.312Z,5.20
2022-11-20T01:59:31.823Z,2.67
2022-11-20T02:02:01.751Z,4.68
2022-11-20T02:04:31.694Z,9.82
2022-11-20T02:07:05.090Z,4.53
2022-11-20T02:09:34.580Z,7.75
2022-11-20T02:12:04.369Z,6.82
2022-11-20T02:14:33.987Z,6.65
2022-11-20T02:17:03.759Z,4.45
2022-11-20T02:19:33.905Z,5.90
2022-11-20T02:22:12.575Z,6.45
2022-11-20T02:24:41.946Z,6.32
2022-11-20T02:27:13.472Z,5.88
2022-11-20T02:30:15.000Z,6.28
2022-11-20T02:32:44.952Z,6.90
2022-11-20T02:35:23.560Z,5.40
2022-11-20T02:37:55.276Z,5.07
2022-11-20T02:40:24.801Z,8.98
2022-11-20T02:42:59.697Z,5.95
2022-11-20T02:45:29.539Z,7.00
2022-11-20T02:47:59.505Z,6.80
2022-11-20T02:50:29.456Z,8.55
2022-11-20T02:53:01.870Z,4.50
2022-11-20T02:55:31.214Z,28.27
2022-11-20T02:58:00.749Z,32.00
2022-11-20T03:00:30.546Z,25.20
2022-11-20T03:03:00.048Z,24.00
2022-11-20T03:05:29.865Z,23.90
2022-11-20T03:07:59.344Z,21.27
2022-11-20T03:10:29.158Z,22.75
2022-11-20T03:13:01.327Z,18.58
2022-11-20T03:15:33.397Z,15.38
2022-11-20T03:18:02.936Z,16.92
2022-11-20T03:20:32.426Z,16.15
2022-11-20T03:23:01.890Z,18.55
2022-11-20T03:25:31.609Z,18.63
2022-11-20T03:28:01.625Z,11.77
2022-11-20T03:30:31.192Z,12.68
2022-11-20T03:33:00.980Z,10.02
2022-11-20T03:35:30.397Z,9.68
2022-11-20T03:38:00.699Z,13.07
2022-11-20T03:40:30.551Z,10.43
2022-11-20T03:42:59.961Z,11.30
2022-11-20T03:45:29.337Z,9.80
2022-11-20T03:47:58.726Z,7.93
2022-11-20T03:50:28.487Z,11.30
2022-11-20T03:52:58.481Z,10.88
2022-11-20T03:55:28.373Z,8.27
2022-11-20T03:57:58.227Z,9.13
2022-11-20T04:00:28.176Z,9.93
2022-11-20T04:03:01.276Z,9.57
2022-11-20T04:05:30.734Z,9.10
2022-11-20T04:08:00.721Z,7.85
2022-11-20T04:10:30.145Z,8.70
2022-11-20T04:12:59.932Z,8.70
2022-11-20T04:15:32.312Z,10.00
2022-11-20T04:18:04.150Z,9.85
2022-11-20T04:20:35.407Z,9.38
2022-11-20T04:23:05.193Z,9.70
2022-11-20T04:25:34.622Z,6.63
2022-11-20T04:28:04.496Z,12.18
2022-11-20T04:30:34.418Z,8.82
2022-11-20T04:33:04.351Z,12.43
2022-11-20T04:35:37.146Z,8.77
2022-11-20T04:38:07.180Z,9.57
2022-11-20T04:40:37.060Z,9.68
2022-11-20T04:43:06.931Z,10.77
2022-11-20T04:45:36.832Z,9.57
2022-11-20T04:48:06.998Z,8.13
2022-11-20T04:50:36.512Z,10.05
2022-11-20T04:53:06.345Z,6.82
2022-11-20T04:55:35.776Z,7.20
2022-11-20T04:58:05.605Z,10.15
2022-11-20T05:00:35.536Z,8.35
2022-11-20T05:03:05.123Z,7.03
2022-11-20T05:05:35.862Z,32.40
2022-11-20T05:08:05.395Z,43.78
2022-11-20T05:10:35.225Z,37.67
2022-11-20T05:13:05.096Z,20.27
2022-11-20T05:15:35.300Z,27.23
2022-11-20T05:18:04.761Z,22.40
2022-11-20T05:20:34.514Z,20.98
2022-11-20T05:23:04.449Z,21.75
2022-11-20T05:25:34.365Z,19.83
2022-11-20T05:28:04.259Z,16.05
2022-11-20T05:30:33.675Z,16.90
2022-11-20T05:33:03.422Z,15.43
2022-11-20T05:35:33.370Z,13.02
2022-11-20T05:38:02.767Z,12.55
2022-11-20T05:40:32.213Z,16.27
2022-11-20T05:43:02.457Z,12.38
2022-11-20T05:45:32.023Z,16.52
2022-11-20T05:48:04.811Z,15.50
2022-11-20T05:53:04.103Z,9.90
2022-11-20T05:55:33.990Z,10.35
2022-11-20T05:58:03.850Z,11.65
2022-11-20T06:00:33.343Z,8.40
2022-11-20T06:03:02.911Z,9.20
2022-11-20T06:05:32.685Z,8.95
2022-11-20T06:08:03.189Z,10.02
2022-11-20T06:10:33.021Z,10.18
2022-11-20T06:13:02.981Z,8.55
2022-11-20T06:15:32.895Z,10.05
2022-11-20T06:18:02.818Z,8.02
2022-11-20T06:20:37.844Z,7.13
2022-11-20T06:23:10.255Z,8.05
2022-11-20T06:25:43.099Z,6.22
2022-11-20T06:28:12.693Z,6.18
2022-11-20T06:30:47.732Z,4.30
2022-11-20T06:33:17.062Z,7.93
2022-11-20T06:35:46.513Z,7.93
2022-11-20T06:38:15.920Z,4.78
2022-11-20T06:40:45.807Z,4.88
2022-11-20T06:43:15.258Z,6.47
2022-11-20T06:45:44.585Z,7.00
2022-11-20T06:48:13.883Z,4.93
2022-11-20T06:50:43.256Z,5.82
2022-11-20T06:53:12.836Z,6.20
2022-11-20T06:55:45.506Z,4.70
2022-11-20T06:58:15.855Z,6.20
2022-11-20T07:00:45.267Z,4.93
2022-11-20T07:03:15.444Z,5.90
2022-11-20T07:05:45.901Z,6.38
2022-11-20T07:08:15.311Z,3.70
2022-11-20T07:10:44.652Z,5.20
2022-11-20T07:13:14.406Z,5.72
2022-11-20T07:15:44.323Z,4.95
2022-11-20T07:18:13.756Z,5.63
2022-11-20T07:20:43.606Z,7.50
2022-11-20T07:23:13.078Z,5.20
2022-11-20T07:25:42.448Z,8.30
2022-11-20T07:28:12.374Z,4.78
2022-11-20T07:30:42.227Z,6.25
2022-11-20T07:33:12.135Z,3.60
2022-11-20T07:35:41.496Z,9.60
2022-11-20T07:38:10.858Z,3.53
2022-11-20T07:40:41.061Z,9.57
2022-11-20T07:43:11.518Z,6.35
2022-11-20T07:45:41.995Z,4.90
2022-11-20T07:48:11.432Z,5.45
2022-11-20T07:50:40.828Z,4.75
2022-11-20T07:53:10.228Z,4.05
2022-11-20T07:55:40.072Z,4.10
2022-11-20T07:58:09.474Z,6.32
2022-11-20T08:00:38.894Z,5.05
2022-11-20T08:03:10.505Z,6.18
2022-11-20T08:05:39.963Z,4.43
2022-11-20T08:08:10.156Z,7.00
2022-11-20T08:10:39.679Z,6.68
2022-11-20T08:13:28.831Z,10.30
2022-11-20T08:15:58.278Z,7.40
2022-11-20T08:18:32.406Z,7.40
2022-11-20T08:21:06.763Z,7.25
2022-11-20T08:23:36.629Z,6.28
2022-11-20T08:26:06.608Z,6.88
2022-11-20T08:28:36.597Z,9.45
2022-11-20T08:31:06.249Z,6.78
2022-11-20T08:33:36.040Z,8.02
2022-11-20T08:36:06.077Z,7.80
2022-11-20T08:38:35.911Z,10.95
2022-11-20T08:41:24.565Z,12.35
2022-11-20T08:43:58.626Z,9.00
2022-11-20T08:46:29.291Z,8.77
2022-11-20T08:48:58.801Z,12.23
2022-11-20T08:51:28.567Z,8.23
2022-11-20T08:53:58.446Z,8.25
2022-11-20T08:56:28.431Z,7.95
2022-11-20T09:01:47.843Z,8.32
2022-11-20T09:04:17.319Z,7.05
2022-11-20T09:06:47.571Z,8.45
2022-11-20T09:09:17.729Z,5.72
2022-11-20T09:11:47.161Z,8.10
2022-11-20T09:14:17.500Z,6.75
2022-11-20T09:16:48.523Z,13.18
2022-11-20T09:19:35.066Z,10.85
2022-11-20T09:22:06.373Z,9.35
2022-11-20T09:24:36.329Z,7.65
2022-11-20T09:27:06.933Z,13.45
2022-11-20T09:29:37.144Z,13.13
2022-11-20T09:32:08.295Z,16.25
2022-11-20T09:34:37.769Z,14.38
2022-11-20T09:37:07.829Z,12.32
2022-11-20T09:39:40.902Z,11.65
2022-11-20T09:42:17.236Z,14.60
2022-11-20T09:44:52.081Z,13.73
2022-11-20T09:47:35.621Z,10.90
2022-11-20T09:50:26.399Z,11.63
2022-11-20T09:53:01.551Z,14.15
2022-11-20T09:55:31.500Z,11.43
2022-11-20T09:58:01.143Z,20.63
2022-11-20T10:00:30.519Z,10.82
2022-11-20T10:03:28.815Z,11.25
2022-11-20T10:05:58.627Z,13.68
2022-11-20T10:08:35.695Z,19.58
2022-11-20T10:11:28.235Z,13.38
2022-11-20T10:14:18.843Z,14.10
2022-11-20T10:16:59.440Z,14.77
2022-11-20T10:19:32.137Z,14.10
2022-11-20T10:22:32.266Z,16.95
2022-11-20T10:25:22.053Z,19.92
2022-11-20T10:28:08.360Z,23.48
2022-11-20T10:30:45.222Z,12.93
2022-11-20T10:33:17.692Z,11.10
2022-11-20T10:36:01.842Z,15.35
2022-11-20T10:38:39.306Z,13.90
2022-11-20T10:41:27.333Z,18.33
2022-11-20T10:44:07.780Z,11.65
2022-11-20T10:46:55.859Z,18.75
2022-11-20T10:49:25.824Z,20.77
2022-11-20T10:52:02.301Z,19.13
2022-11-20T10:54:40.884Z,16.20
2022-11-20T10:57:21.647Z,21.58
2022-11-20T10:59:54.208Z,20.83
2022-11-20T11:02:26.380Z,19.70
2022-11-20T11:04:56.564Z,30.38
2022-11-20T11:07:44.637Z,28.95
2022-11-20T11:10:21.613Z,35.58
2022-11-20T11:12:52.095Z,31.77
2022-11-20T11:15:51.186Z,30.85
2022-11-20T11:18:32.039Z,30.88
2022-11-20T11:21:06.261Z,29.02
2022-11-20T11:23:43.664Z,32.67
2022-11-20T11:26:24.646Z,24.92
2022-11-20T11:29:06.618Z,24.23
2022-11-20T11:31:36.776Z,30.45
2022-11-20T11:34:09.892Z,27.80
2022-11-20T11:39:09.037Z,22.75
2022-11-20T11:41:38.946Z,20.20
2022-11-20T11:44:43.612Z,23.63
2022-11-20T11:47:34.963Z,19.83
2022-11-20T11:50:21.170Z,14.93
2022-11-20T11:53:17.215Z,18.15
2022-11-20T11:56:07.090Z,16.08
2022-11-20T11:58:53.468Z,16.63
2022-11-20T12:01:45.418Z,17.08
2022-11-20T12:04:49.919Z,20.77
2022-11-20T12:07:46.226Z,13.77
2022-11-20T12:10:25.955Z,17.58
2022-11-20T12:13:25.723Z,14.23
2022-11-20T12:15:56.691Z,37.65
2022-11-20T12:18:26.600Z,26.20
2022-11-20T12:21:25.008Z,28.00
2022-11-20T12:24:03.242Z,21.67
2022-11-20T12:26:35.534Z,24.02
2022-11-20T12:29:26.419Z,25.63
2022-11-20T12:31:58.789Z,20.45
2022-11-20T12:34:49.595Z,22.75
2022-11-20T12:37:50.837Z,28.20
2022-11-20T12:40:42.206Z,20.92
2022-11-20T12:43:43.687Z,20.75
2022-11-20T12:46:31.361Z,26.55
2022-11-20T12:49:21.077Z,20.90
2022-11-20T12:52:09.837Z,20.15
2022-11-20T12:54:52.954Z,26.23
2022-11-20T12:57:31.647Z,22.17
2022-11-20T13:00:16.118Z,23.73
2022-11-20T13:03:16.313Z,21.85
2022-11-20T13:06:07.465Z,26.38
2022-11-20T13:08:44.944Z,20.48
2022-11-20T13:11:21.625Z,23.27
2022-11-20T13:14:10.889Z,25.77
2022-11-20T13:16:57.732Z,27.42
2022-11-20T13:19:30.794Z,25.10
2022-11-20T13:22:01.214Z,22.98
2022-11-20T13:24:32.938Z,21.80
2022-11-20T13:27:06.226Z,21.00
2022-11-20T13:29:37.334Z,17.58
2022-11-20T13:32:27.019Z,25.90
2022-11-20T13:35:04.368Z,18.75
2022-11-20T13:37:38.877Z,25.27
2022-11-20T13:40:11.969Z,20.10
2022-11-20T13:42:48.444Z,27.35
2022-11-20T13:45:33.921Z,19.30
2022-11-20T13:48:17.425Z,18.60
2022-11-20T13:53:51.172Z,24.05
2022-11-20T13:56:39.208Z,23.58
2022-11-20T13:59:31.304Z,29.42
2022-11-20T14:02:01.254Z,23.60
2022-11-20T14:04:32.788Z,26.08
2022-11-20T14:07:02.273Z,24.38
2022-11-20T14:09:34.339Z,23.20
2022-11-20T14:12:05.281Z,24.20
2022-11-20T14:14:37.994Z,23.90
2022-11-20T14:17:18.301Z,21.48
2022-11-20T14:19:49.123Z,25.50
2022-11-20T14:22:24.158Z,25.67
2022-11-20T14:25:19.252Z,25.10
2022-11-20T14:28:02.079Z,24.10
2022-11-20T14:30:45.688Z,22.80
2022-11-20T14:33:15.781Z,22.65
2022-11-20T14:35:52.392Z,28.70
2022-11-20T14:38:29.868Z,26.30
2022-11-20T14:41:27.591Z,25.05
2022-11-20T14:44:01.061Z,32.63
2022-11-20T14:46:31.396Z,35.35
2022-11-20T14:49:03.153Z,29.90
2022-11-20T14:51:33.020Z,31.38
2022-11-20T14:54:19.232Z,27.00
2022-11-20T14:57:01.008Z,25.83
2022-11-20T14:59:35.121Z,28.88
2022-11-20T15:02:08.222Z,27.70
2022-11-20T15:04:53.448Z,29.85
2022-11-20T15:07:36.621Z,31.33
2022-11-20T15:10:11.330Z,29.13
2022-11-20T15:12:59.061Z,32.65
2022-11-20T15:15:31.859Z,45.85
2022-11-20T15:18:01.869Z,29.20
2022-11-20T15:20:33.700Z,29.73
2022-11-20T15:23:03.719Z,31.70
2022-11-20T15:25:33.196Z,23.13
2022-11-20T15:28:03.136Z,26.85
2022-11-20T15:30:33.202Z,27.00
2022-11-20T15:33:03.170Z,25.35
2022-11-20T15:35:33.080Z,27.30
2022-11-20T15:38:04.196Z,30.15
2022-11-20T15:40:33.827Z,28.77
2022-11-20T15:43:13.067Z,25.05
2022-11-20T15:45:52.207Z,21.83
2022-11-20T15:48:29.373Z,23.23
2022-11-20T15:51:06.853Z,24.35
2022-11-20T15:53:36.788Z,20.05
2022-11-20T15:56:07.628Z,20.17
2022-11-20T15:58:37.023Z,27.27
2022-11-20T16:01:06.945Z,21.75
2022-11-20T16:03:36.897Z,24.77
2022-11-20T16:06:07.677Z,21.67
2022-11-20T16:08:37.680Z,27.13
2022-11-20T16:11:07.687Z,29.20
2022-11-20T16:13:56.308Z,24.30
2022-11-20T16:16:38.536Z,29.98
2022-11-20T16:19:09.267Z,27.70
2022-11-20T16:21:39.298Z,30.05
2022-11-20T16:24:10.433Z,24.48
2022-11-20T16:26:39.985Z,21.75
2022-11-20T16:29:10.513Z,23.80
2022-11-20T16:31:40.634Z,24.08
2022-11-20T16:34:12.672Z,18.27
2022-11-20T16:36:44.025Z,24.27
2022-11-20T16:39:15.016Z,20.63
2022-11-20T16:41:46.123Z,22.08
2022-11-20T16:44:16.046Z,16.92
2022-11-20T16:46:45.994Z,13.70
2022-11-20T16:49:15.870Z,16.10
2022-11-20T16:51:45.377Z,15.40
2022-11-20T16:54:19.462Z,14.20
2022-11-20T16:56:51.718Z,14.90
2022-11-20T16:59:21.707Z,15.60
2022-11-20T17:01:51.552Z,13.73
2022-11-20T17:04:21.536Z,24.75
2022-11-20T17:06:51.158Z,14.02
2022-11-20T17:09:20.973Z,16.33
2022-11-20T17:11:50.778Z,15.55
2022-11-20T17:14:21.341Z,16.10
2022-11-20T17:16:51.286Z,15.85
2022-11-20T17:19:21.178Z,15.75
2022-11-20T17:21:51.153Z,22.63
2022-11-20T17:24:21.017Z,22.67
2022-11-20T17:26:51.722Z,21.60
2022-11-20T17:29:24.998Z,27.10
2022-11-20T17:34:24.847Z,24.67
2022-11-20T17:36:56.062Z,24.85
2022-11-20T17:39:25.497Z,20.00
2022-11-20T17:42:13.077Z,19.80
2022-11-20T17:44:43.386Z,14.48
2022-11-20T17:47:13.234Z,14.02
2022-11-20T17:49:43.164Z,12.50
2022-11-20T17:52:12.636Z,14.00
2022-11-20T17:54:42.512Z,15.55
2022-11-20T17:57:30.811Z,12.80
2022-11-20T18:00:00.798Z,12.35
2022-11-20T18:02:30.679Z,10.35
2022-11-20T18:05:00.554Z,11.35
2022-11-20T18:07:30.839Z,12.38
2022-11-20T18:10:00.175Z,10.25
2022-11-20T18:12:29.538Z,13.43
2022-11-20T18:14:59.478Z,9.57
2022-11-20T18:17:29.483Z,9.00
2022-11-20T18:22:49.403Z,11.27
2022-11-20T18:25:19.055Z,10.57
2022-11-20T18:27:48.791Z,11.88
2022-11-20T18:30:18.638Z,10.32
2022-11-20T18:32:48.081Z,10.70
2022-11-20T18:35:18.048Z,12.90
2022-11-20T18:37:47.989Z,14.23
2022-11-20T18:40:17.962Z,14.27
2022-11-20T18:43:06.192Z,12.07
2022-11-20T18:45:36.127Z,12.15
2022-11-20T18:48:06.017Z,12.27
2022-11-20T18:50:35.817Z,9.82
2022-11-20T18:53:05.375Z,9.43
2022-11-20T18:55:34.834Z,10.85
2022-11-20T18:58:04.200Z,12.65
2022-11-20T19:00:33.671Z,14.55
2022-11-20T19:03:03.385Z,13.63
2022-11-20T19:05:32.760Z,14.82
2022-11-20T19:08:02.175Z,16.92
2022-11-20T19:10:32.099Z,19.38
2022-11-20T19:13:01.496Z,19.65
2022-11-20T19:15:31.270Z,19.40
2022-11-20T19:18:02.393Z,22.35
2022-11-20T19:20:32.667Z,18.70
2022-11-20T19:23:02.008Z,17.77
2022-11-20T19:25:37.925Z,17.77
2022-11-20T19:28:08.900Z,15.23
2022-11-20T19:30:38.878Z,12.48
2022-11-20T19:33:08.662Z,12.60
2022-11-20T19:35:38.125Z,9.90
2022-11-20T19:38:07.503Z,14.90
2022-11-20T19:40:37.406Z,13.77
2022-11-20T19:43:06.843Z,12.30
2022-11-20T19:45:36.816Z,15.43
2022-11-20T19:48:07.975Z,14.43
2022-11-20T19:50:38.176Z,14.73
2022-11-20T19:53:08.573Z,22.90
2022-11-20T19:55:38.121Z,17.85
2022-11-20T19:58:07.986Z,11.95
2022-11-20T20:00:37.490Z,13.93
2022-11-20T20:03:07.227Z,10.15
2022-11-20T20:05:37.129Z,8.77
2022-11-20T20:08:07.271Z,9.68
2022-11-20T20:10:37.401Z,9.75
2022-11-20T20:13:06.908Z,8.30
2022-11-20T20:15:36.318Z,11.82
2022-11-20T20:18:06.552Z,7.43
2022-11-20T20:20:36.567Z,10.65
2022-11-20T20:23:08.112Z,9.63
2022-11-20T20:25:40.760Z,8.80
2022-11-20T20:28:13.594Z,9.80
2022-11-20T20:30:43.639Z,8.07
2022-11-20T20:33:13.501Z,10.68
2022-11-20T20:35:44.057Z,9.93
2022-11-20T20:38:13.714Z,8.85
2022-11-20T20:40:52.138Z,9.77
2022-11-20T20:43:22.164Z,9.10
2022-11-20T20:45:52.570Z,10.20
2022-11-20T20:48:23.331Z,10.32
2022-11-20T20:51:00.531Z,10.10
2022-11-20T20:53:31.802Z,10.27
2022-11-20T20:56:02.698Z,10.20
2022-11-20T20:58:32.645Z,10.25
2022-11-20T21:01:09.819Z,12.05
2022-11-20T21:03:39.308Z,12.52
2022-11-20T21:06:10.521Z,11.15
2022-11-20T21:08:41.069Z,10.00
2022-11-20T21:11:13.359Z,14.43
2022-11-20T21:13:44.125Z,16.63
2022-11-20T21:16:14.774Z,10.60
2022-11-20T21:18:44.218Z,12.25
2022-11-20T21:21:33.703Z,14.88
2022-11-20T21:24:03.409Z,12.98
2022-11-20T21:26:32.850Z,13.25
2022-11-20T21:29:02.624Z,11.73
2022-11-20T21:31:32.164Z,10.40
2022-11-20T21:34:02.074Z,10.55
2022-11-20T21:36:32.045Z,8.65
2022-11-20T21:39:02.102Z,8.15
2022-11-20T21:41:32.299Z,12.43
2022-11-20T21:46:54.896Z,9.57
2022-11-20T21:49:24.546Z,8.35
2022-11-20T21:51:54.499Z,9.32
2022-11-20T21:54:23.966Z,9.48
2022-11-20T21:56:53.558Z,7.90
2022-11-20T21:59:24.385Z,10.50
2022-11-20T22:01:54.317Z,9.35
2022-11-20T22:04:24.504Z,10.88
2022-11-20T22:06:54.666Z,10.95
2022-11-20T22:09:24.218Z,9.00
2022-11-20T22:11:53.549Z,10.85
2022-11-20T22:14:24.318Z,12.18
2022-11-20T22:16:54.737Z,10.32
2022-11-20T22:19:24.853Z,9.77
2022-11-20T22:21:54.315Z,8.35
2022-11-20T22:24:24.578Z,7.28
2022-11-20T22:26:54.301Z,9.75
2022-11-20T22:29:23.743Z,10.10
2022-11-20T22:31:53.816Z,8.55
2022-11-20T22:34:23.576Z,7.22
2022-11-20T22:36:53.564Z,7.00
2022-11-20T22:39:23.742Z,7.63
2022-11-20T22:41:53.070Z,7.07
2022-11-20T22:44:23.060Z,8.40
2022-11-20T22:46:53.022Z,7.20
2022-11-20T22:49:22.572Z,7.38
2022-11-20T22:51:52.139Z,10.27
2022-11-20T22:54:21.762Z,7.38
2022-11-20T22:56:51.288Z,7.78
2022-11-20T22:59:21.222Z,8.68
2022-11-20T23:01:51.102Z,6.75
2022-11-20T23:04:21.097Z,7.32
2022-11-20T23:06:51.060Z,5.55
2022-11-20T23:09:21.202Z,7.22
2022-11-20T23:11:51.084Z,7.10
2022-11-20T23:14:26.405Z,5.65
2022-11-20T23:16:58.075Z,5.60
2022-11-20T23:19:27.969Z,5.38
2022-11-20T23:21:58.136Z,10.70
2022-11-20T23:24:27.785Z,6.45
2022-11-20T23:26:57.382Z,6.40
2022-11-20T23:29:27.177Z,8.63
2022-11-20T23:31:56.726Z,6.68
2022-11-20T23:34:26.182Z,6.30
2022-11-20T23:36:56.163Z,8.48
2022-11-20T23:39:25.641Z,7.57
2022-11-20T23:41:55.153Z,8.50
2022-11-20T23:44:26.499Z,9.20
2022-11-20T23:46:56.509Z,7.78
2022-11-20T23:49:25.830Z,5.70
2022-11-20T23:51:55.219Z,7.45
2022-11-20T23:54:25.418Z,7.03
2022-11-20T23:56:55.177Z,6.57
2022-11-20T23:59:24.744Z,8.07
